Time;durP1;ratioP1;P1;durP2;ratioP2;P2;SDS_P1;SDS_P2;PMS_P1;PMS_P2;Temp;Humidity;BMP_temperature;BMP_pressure;BME280_temperature;BME280_humidity;BME280_pressure;Samples;Min_cycle;Max_cycle;Signal;HPM_P1;HPM_P2
2022/02/15 00:04:46;;;;;;;0.20;0.10;;;9.40;99.90;;;;;;25329613;23;20207;-79
2022/02/15 00:14:52;;;;;;;0.20;0.10;;;9.20;99.90;;;;;;25306065;23;20518;-78
2022/02/15 00:24:55;;;;;;;0.20;0.10;;;9.30;99.90;;;;;;25329582;23;20207;-78
2022/02/15 00:35:01;;;;;;;0.20;0.03;;;9.40;99.90;;;;;;25328653;23;20172;-78
2022/02/15 00:45:05;;;;;;;0.20;0.00;;;9.30;99.90;;;;;;25328290;23;20192;-77
2022/02/15 00:55:13;;;;;;;0.20;0.10;;;9.20;99.90;;;;;;25328641;23;20187;-78
2022/02/15 01:05:16;;;;;;;0.20;0.00;;;9.10;99.90;;;;;;25326588;23;20359;-76
2022/02/15 01:15:21;;;;;;;0.20;0.10;;;9.10;99.90;;;;;;25326787;23;20183;-75
2022/02/15 01:25:26;;;;;;;0.20;0.00;;;9.10;99.90;;;;;;25328000;23;20168;-78
2022/02/15 01:35:32;;;;;;;0.20;0.07;;;8.90;99.90;;;;;;25327666;23;20168;-78
2022/02/15 01:45:36;;;;;;;0.20;0.10;;;8.70;99.90;;;;;;25326409;23;20192;-78
2022/02/15 01:55:41;;;;;;;0.20;0.10;;;8.50;99.90;;;;;;25327804;23;20188;-73
2022/02/15 02:05:49;;;;;;;0.20;0.10;;;8.40;99.90;;;;;;25329219;23;20204;-75
2022/02/15 02:15:54;;;;;;;0.20;0.10;;;8.40;99.90;;;;;;25334415;23;20188;-69
2022/02/15 02:25:59;;;;;;;0.20;0.10;;;8.50;99.90;;;;;;25335793;23;20175;-70
2022/02/15 02:36:03;;;;;;;0.20;0.10;;;8.40;99.90;;;;;;25333815;23;20199;-68
2022/02/15 02:46:08;;;;;;;0.20;0.10;;;8.30;99.90;;;;;;25334686;23;20188;-69
2022/02/15 02:56:13;;;;;;;0.20;0.10;;;8.40;99.90;;;;;;25333845;23;20206;-69
2022/02/15 03:06:21;;;;;;;0.20;0.10;;;8.20;99.90;;;;;;25332719;23;20203;-69
2022/02/15 03:16:25;;;;;;;0.20;0.10;;;8.00;99.90;;;;;;25332570;23;20188;-69
2022/02/15 03:26:30;;;;;;;0.20;0.10;;;7.50;99.90;;;;;;25332206;23;20198;-68
2022/02/15 03:36:35;;;;;;;0.20;0.00;;;7.40;99.90;;;;;;25332367;23;20204;-69
2022/02/15 03:46:40;;;;;;;0.20;0.00;;;7.20;99.90;;;;;;25331722;23;20188;-69
2022/02/15 03:56:43;;;;;;;0.20;0.10;;;7.10;99.90;;;;;;25330651;23;20203;-68
2022/02/15 04:06:51;;;;;;;0.20;0.10;;;7.40;99.90;;;;;;25305983;23;20275;-68
2022/02/15 04:16:57;;;;;;;0.20;0.10;;;7.10;99.90;;;;;;25329162;23;20203;-68
2022/02/15 04:27:02;;;;;;;0.20;0.10;;;7.30;99.90;;;;;;25328325;23;20183;-68
2022/02/15 04:37:06;;;;;;;0.20;0.10;;;7.00;99.90;;;;;;25327746;23;20216;-68
2022/02/15 04:47:11;;;;;;;0.20;0.00;;;7.00;99.90;;;;;;25324638;23;20185;-70
2022/02/15 04:57:15;;;;;;;0.20;0.10;;;7.00;99.90;;;;;;25323136;23;20192;-69
2022/02/15 05:07:22;;;;;;;0.20;0.10;;;7.20;99.90;;;;;;25327118;23;20203;-69
2022/02/15 05:17:27;;;;;;;0.20;0.10;;;7.20;99.90;;;;;;25327178;23;20184;-69
2022/02/15 05:27:32;;;;;;;0.20;0.00;;;7.20;99.90;;;;;;25323632;23;20168;-69
2022/02/15 05:37:36;;;;;;;0.20;0.10;;;7.20;99.90;;;;;;25325209;23;20184;-69
2022/02/15 05:47:41;;;;;;;0.20;0.10;;;7.30;99.90;;;;;;25335009;23;20184;-70
2022/02/15 05:57:45;;;;;;;0.20;0.10;;;7.30;99.90;;;;;;25336809;23;20194;-69
2022/02/15 06:07:50;;;;;;;0.20;0.10;;;7.20;99.90;;;;;;25216096;23;20196;-69
2022/02/15 06:17:54;;;;;;;0.20;0.10;;;7.20;99.90;;;;;;25216024;23;20193;-68
2022/02/15 06:28:00;;;;;;;0.20;0.10;;;7.30;99.90;;;;;;25215474;23;20168;-67
2022/02/15 06:38:04;;;;;;;0.20;0.10;;;7.20;99.90;;;;;;25237612;23;20204;-68
2022/02/15 06:48:10;;;;;;;0.20;0.03;;;7.50;99.90;;;;;;25235747;23;20742;-71
2022/02/15 06:58:13;;;;;;;0.20;0.10;;;7.20;99.90;;;;;;25206795;23;20204;-70
2022/02/15 07:08:18;;;;;;;0.20;0.10;;;7.30;99.90;;;;;;25317482;23;20167;-67
2022/02/15 07:18:23;;;;;;;0.77;0.77;;;7.50;99.90;;;;;;25322349;23;20192;-67
2022/02/15 07:28:29;;;;;;;0.20;0.10;;;7.60;99.90;;;;;;25324166;23;20176;-67
2022/02/15 07:38:33;;;;;;;0.20;0.10;;;7.60;99.90;;;;;;25322211;23;20199;-67
2022/02/15 07:48:38;;;;;;;0.20;0.10;;;7.90;99.90;;;;;;25297369;23;20184;-65
2022/02/15 07:58:42;;;;;;;0.20;0.10;;;8.20;99.90;;;;;;25320363;23;20291;-66
2022/02/15 08:08:47;;;;;;;0.20;0.10;;;8.40;99.90;;;;;;25319844;23;20180;-65
2022/02/15 08:18:51;;;;;;;0.20;0.07;;;8.70;99.90;;;;;;25319576;23;20235;-64
2022/02/15 08:28:56;;;;;;;1.03;0.67;;;9.10;99.90;;;;;;25320970;23;20171;-67
2022/02/15 08:39:00;;;;;;;0.20;0.10;;;9.40;99.90;;;;;;25322220;23;20191;-67
2022/02/15 08:49:05;;;;;;;0.20;0.10;;;9.70;99.90;;;;;;25322395;23;20188;-67
2022/02/15 08:59:09;;;;;;;0.20;0.10;;;10.10;99.90;;;;;;25323059;23;20203;-65
2022/02/15 09:09:14;;;;;;;0.20;0.10;;;10.50;99.90;;;;;;25321273;23;20223;-66
2022/02/15 09:19:18;;;;;;;0.20;0.10;;;10.80;99.90;;;;;;25322233;23;20469;-68
2022/02/15 09:29:24;;;;;;;0.20;0.10;;;11.00;99.90;;;;;;25321192;23;20168;-68
2022/02/15 09:39:28;;;;;;;0.20;0.10;;;11.50;99.90;;;;;;25321022;23;20191;-77
2022/02/15 09:49:52;;;;;;;0.20;0.07;;;11.90;99.90;;;;;;25318755;23;20153;-76
2022/02/15 09:59:56;;;;;;;0.37;0.37;;;12.60;99.90;;;;;;25293506;23;20206;-78
2022/02/15 10:10:02;;;;;;;0.20;0.00;;;12.70;99.90;;;;;;25318685;23;20176;-77
2022/02/15 10:20:07;;;;;;;0.20;0.10;;;13.70;99.90;;;;;;25313547;23;20252;-77
2022/02/15 10:30:13;;;;;;;0.20;0.10;;;14.40;99.90;;;;;;25318964;23;20172;-75
2022/02/15 10:40:21;;;;;;;0.20;0.10;;;15.10;99.90;;;;;;25325491;23;20207;-76
2022/02/15 10:50:26;;;;;;;0.20;0.10;;;15.40;99.90;;;;;;25323153;23;20164;-75
2022/02/15 11:00:30;;;;;;;0.20;0.10;;;15.70;99.90;;;;;;25325492;23;20203;-76
2022/02/15 11:10:45;;;;;;;0.20;0.10;;;15.60;99.90;;;;;;25329483;23;20233;-75
2022/02/15 11:20:54;;;;;;;0.20;0.10;;;16.20;99.90;;;;;;25327001;23;20195;-75
2022/02/15 11:31:01;;;;;;;0.20;0.10;;;16.80;99.90;;;;;;25324673;23;20168;-78
2022/02/15 11:41:06;;;;;;;0.20;0.00;;;16.90;99.90;;;;;;25325346;23;20216;-77
2022/02/15 11:51:23;;;;;;;0.20;0.10;;;17.70;99.90;;;;;;25325351;23;20186;-69
2022/02/15 12:01:29;;;;;;;0.20;0.00;;;17.50;99.90;;;;;;25324454;23;20207;-69
2022/02/15 12:11:38;;;;;;;0.20;0.00;;;18.20;99.90;;;;;;25324465;23;20156;-68
2022/02/15 12:21:41;;;;;;;0.20;0.10;;;18.50;99.90;;;;;;25320343;23;20203;-69
2022/02/15 12:31:47;;;;;;;0.27;0.20;;;19.00;99.90;;;;;;25325277;23;20240;-69
2022/02/15 12:41:52;;;;;;;0.20;0.10;;;19.50;99.90;;;;;;25322330;23;20215;-79
2022/02/15 12:51:57;;;;;;;0.20;0.00;;;19.90;99.90;;;;;;25321927;23;20165;-74
2022/02/15 13:02:02;;;;;;;0.20;0.10;;;20.20;99.90;;;;;;25322297;23;20204;-74
2022/02/15 13:12:09;;;;;;;0.20;0.00;;;21.10;99.90;;;;;;25324106;23;20172;-74
2022/02/15 13:22:15;;;;;;;0.20;0.10;;;21.10;99.90;;;;;;25322351;23;20199;-75
2022/02/15 13:32:30;;;;;;;0.20;0.10;;;21.10;99.90;;;;;;25314029;23;20171;-76
2022/02/15 13:42:34;;;;;;;0.20;0.00;;;21.80;99.90;;;;;;25312630;23;20207;-74
2022/02/15 13:52:39;;;;;;;0.20;0.10;;;22.10;99.90;;;;;;25318576;23;20176;-74
2022/02/15 14:02:44;;;;;;;0.20;0.00;;;22.30;99.90;;;;;;25318905;23;20207;-72
2022/02/15 14:12:49;;;;;;;0.20;0.00;;;22.60;99.90;;;;;;25325989;23;20183;-75
2022/02/15 14:22:53;;;;;;;0.20;0.00;;;22.70;99.90;;;;;;25328227;23;20231;-73
2022/02/15 14:32:58;;;;;;;0.20;0.03;;;23.50;99.90;;;;;;25327352;23;20168;-74
2022/02/15 14:43:02;;;;;;;0.20;0.00;;;23.50;99.00;;;;;;25325358;23;20204;-75
2022/02/15 14:53:07;;;;;;;0.20;0.00;;;24.00;99.90;;;;;;25325095;23;20165;-74
2022/02/15 15:03:12;;;;;;;0.20;0.00;;;23.40;98.40;;;;;;25323533;23;20221;-72
2022/02/15 15:13:17;;;;;;;0.20;0.00;;;24.10;98.10;;;;;;25322777;23;20183;-74
2022/02/15 15:23:21;;;;;;;0.20;0.00;;;22.80;96.10;;;;;;25321308;23;20211;-73
2022/02/15 15:33:26;;;;;;;0.20;0.00;;;22.90;95.30;;;;;;25322716;23;20168;-72
2022/02/15 15:43:32;;;;;;;4.60;4.40;;;22.90;95.00;;;;;;25320229;23;20223;-73
2022/02/15 15:53:38;;;;;;;0.20;0.10;;;19.70;96.60;;;;;;25321273;23;20168;-72
2022/02/15 16:03:42;;;;;;;0.20;0.00;;;18.80;97.30;;;;;;25320453;23;20200;-73
2022/02/15 16:13:47;;;;;;;0.20;0.10;;;19.00;97.80;;;;;;25307998;23;20164;-71
2022/02/15 16:23:51;;;;;;;0.20;0.10;;;18.90;98.40;;;;;;25318981;23;20188;-73
2022/02/15 16:33:57;;;;;;;0.20;0.10;;;17.90;99.60;;;;;;25317292;23;20173;-72
2022/02/15 16:44:02;;;;;;;0.20;0.10;;;17.40;99.90;;;;;;25318841;23;20220;-71
2022/02/15 16:54:10;;;;;;;0.20;0.00;;;17.40;99.90;;;;;;25318072;23;20202;-75
2022/02/15 17:04:13;;;;;;;0.20;0.10;;;16.20;99.90;;;;;;25268122;23;20212;-74
2022/02/15 17:14:19;;;;;;;0.20;0.10;;;15.20;99.90;;;;;;25315726;23;20192;-75
2022/02/15 17:24:23;;;;;;;0.20;0.10;;;14.60;99.90;;;;;;25315656;23;20263;-79
2022/02/15 17:34:32;;;;;;;0.20;0.10;;;14.20;99.90;;;;;;25318532;23;20191;-75
2022/02/15 17:44:36;;;;;;;0.20;0.10;;;14.10;99.90;;;;;;25315896;23;20292;-76
2022/02/15 17:54:41;;;;;;;0.20;0.10;;;13.80;99.90;;;;;;25317038;23;20173;-76
2022/02/15 18:04:45;;;;;;;0.20;0.10;;;13.60;99.90;;;;;;25318673;23;20204;-69
2022/02/15 18:14:52;;;;;;;0.20;0.10;;;13.50;99.90;;;;;;25317576;23;20172;-68
2022/02/15 18:24:55;;;;;;;0.20;0.10;;;13.30;99.90;;;;;;25316365;23;20184;-70
2022/02/15 18:35:01;;;;;;;0.20;0.10;;;13.20;99.90;;;;;;25282787;23;20179;-68
2022/02/15 18:45:06;;;;;;;0.20;0.10;;;13.00;99.90;;;;;;25315196;23;20210;-69
2022/02/15 18:55:13;;;;;;;0.20;0.10;;;12.80;99.90;;;;;;25317052;23;20192;-68
2022/02/15 19:05:17;;;;;;;0.20;0.20;;;12.70;99.90;;;;;;25319034;23;20211;-69
2022/02/15 19:15:22;;;;;;;0.20;0.10;;;12.50;99.90;;;;;;25323797;23;20183;-67
2022/02/15 19:25:31;;;;;;;0.20;0.10;;;12.40;99.90;;;;;;25316065;23;20280;-67
2022/02/15 19:35:36;;;;;;;0.20;0.10;;;12.10;99.90;;;;;;25316701;23;20192;-67
2022/02/15 19:45:42;;;;;;;0.20;0.10;;;12.20;99.90;;;;;;25317667;23;20204;-67
2022/02/15 19:55:47;;;;;;;0.20;0.10;;;12.00;99.90;;;;;;25309075;23;20856;-67
2022/02/15 20:05:51;;;;;;;0.20;0.10;;;11.80;99.90;;;;;;25313099;23;20208;-68
2022/02/15 20:15:56;;;;;;;0.20;0.10;;;11.20;99.90;;;;;;25319425;23;20172;-69
2022/02/15 20:26:00;;;;;;;0.20;0.10;;;10.90;99.90;;;;;;25320034;23;20190;-68
2022/02/15 20:36:06;;;;;;;0.20;0.10;;;10.70;99.90;;;;;;25321557;23;20179;-69
2022/02/15 20:46:10;;;;;;;0.20;0.10;;;10.90;99.90;;;;;;25318784;23;20202;-68
2022/02/15 20:56:15;;;;;;;0.20;0.00;;;10.60;99.90;;;;;;25317453;23;20216;-68
2022/02/15 21:06:20;;;;;;;0.20;0.10;;;10.50;99.90;;;;;;25319051;23;20203;-68
2022/02/15 21:16:32;;;;;;;0.20;0.10;;;10.50;99.90;;;;;;25319608;23;20223;-67
2022/02/15 21:26:36;;;;;;;0.20;0.10;;;10.20;99.90;;;;;;25320040;23;20191;-68
2022/02/15 21:36:42;;;;;;;0.20;0.10;;;10.20;99.90;;;;;;25317914;23;20173;-68
2022/02/15 21:46:46;;;;;;;0.20;0.10;;;10.00;99.90;;;;;;25319228;23;20200;-68
2022/02/15 21:56:51;;;;;;;0.20;0.10;;;9.80;99.90;;;;;;25317381;23;20164;-68
2022/02/15 22:07:03;;;;;;;0.20;0.10;;;9.80;99.90;;;;;;25318569;23;20208;-66
2022/02/15 22:17:08;;;;;;;0.20;0.10;;;9.40;99.90;;;;;;25318924;23;20168;-66
2022/02/15 22:27:15;;;;;;;0.20;0.10;;;9.40;99.90;;;;;;25322738;23;20200;-66
2022/02/15 22:37:22;;;;;;;0.20;0.10;;;9.30;99.90;;;;;;25328041;23;20164;-65
2022/02/15 22:47:26;;;;;;;0.20;0.10;;;9.20;99.90;;;;;;25328083;23;20235;-66
2022/02/15 22:57:31;;;;;;;0.20;0.10;;;8.80;99.90;;;;;;25327739;23;20171;-77
2022/02/15 23:18:01;;;;;;;0.20;0.10;;;8.80;99.90;;;;;;25323923;23;20190;-79
2022/02/15 23:28:06;;;;;;;0.20;0.10;;;8.70;99.90;;;;;;25321621;23;20199;-75
2022/02/15 23:38:11;;;;;;;0.20;0.10;;;8.50;99.90;;;;;;25324379;23;20166;-65
2022/02/15 23:48:16;;;;;;;0.20;0.10;;;8.60;99.90;;;;;;25322832;23;20196;-66
2022/02/15 23:58:22;;;;;;;0.20;0.10;;;8.60;99.90;;;;;;25322403;23;20172;-75
